KDVN

Davenport Municipal Airport

Davenport, Iowa, USA
METAR KDVN 231052Z AUTO 13004KT 2 1/2SM BR CLR 15/14 A3016 RMK AO2 SLP207 T01500144
Observed Flight Rules
May-23 @ 10:52 UTC (23 minutes ago) Instrument Flight Rules
Wind Visibility Clouds Conditions
130° at 4 knots 2 1/2 miles
  • Clear skies
  • Mist
Temperatures Readings
Current 15°C / 59°F
Dewpoint 14°C / 57°F
Humidity 94%
Altimeter 30.16" Hg
Pressure 1020.7 hPa
Elevation 230
METAR KDVN 231052Z AUTO 13004KT 2 1/2SM BR CLR 15/14 A3016 RMK AO2 SLP207 T01500144
Observed Flight Rules
May-23 @ 10:52 UTC
(23 minutes ago)
IFR
Wind Visibility
130° at 4 knots 2 1/2 miles
Clouds
  • Clear skies
Conditions
  • Mist
Temperature Dewpoint
15°C / 59°F 14°C / 57°F
Humidity Altimeter Pressure
94% 30.16" Hg 1020.7 hPa